sensor_id;sensor_type;location;lat;lon;timestamp;pressure;altitude;pressure_sealevel;temperature;humidity
13029;BME280;6581;42.662;23.402;2023-05-23T00:00:12;95212.97;;;12.97;100.00
13029;BME280;6581;42.662;23.402;2023-05-23T00:02:42;95209.47;;;12.85;100.00
13029;BME280;6581;42.662;23.402;2023-05-23T00:05:09;95210.25;;;12.86;100.00
13029;BME280;6581;42.662;23.402;2023-05-23T00:07:37;95202.63;;;12.81;100.00
13029;BME280;6581;42.662;23.402;2023-05-23T00:10:05;95198.06;;;12.78;100.00
13029;BME280;6581;42.662;23.402;2023-05-23T00:12:32;95198.78;;;12.75;100.00
13029;BME280;6581;42.662;23.402;2023-05-23T00:15:00;95200.66;;;12.64;100.00
13029;BME280;6581;42.662;23.402;2023-05-23T00:17:27;95211.69;;;12.69;100.00
13029;BME280;6581;42.662;23.402;2023-05-23T00:19:55;95210.50;;;12.60;100.00
13029;BME280;6581;42.662;23.402;2023-05-23T00:22:22;95208.66;;;12.71;100.00
13029;BME280;6581;42.662;23.402;2023-05-23T00:24:51;95207.50;;;12.72;100.00
13029;BME280;6581;42.662;23.402;2023-05-23T00:27:18;95198.00;;;12.71;100.00
13029;BME280;6581;42.662;23.402;2023-05-23T00:29:45;95198.00;;;12.67;100.00
13029;BME280;6581;42.662;23.402;2023-05-23T00:32:12;95199.13;;;12.66;100.00
13029;BME280;6581;42.662;23.402;2023-05-23T00:34:39;95204.41;;;12.59;100.00
13029;BME280;6581;42.662;23.402;2023-05-23T00:37:07;95197.16;;;12.56;100.00
13029;BME280;6581;42.662;23.402;2023-05-23T00:39:34;95191.47;;;12.54;100.00
13029;BME280;6581;42.662;23.402;2023-05-23T00:42:03;95186.88;;;12.51;100.00
13029;BME280;6581;42.662;23.402;2023-05-23T00:44:31;95190.69;;;12.50;100.00
13029;BME280;6581;42.662;23.402;2023-05-23T00:46:58;95194.47;;;12.49;100.00
13029;BME280;6581;42.662;23.402;2023-05-23T00:49:26;95201.28;;;12.47;100.00
13029;BME280;6581;42.662;23.402;2023-05-23T00:51:53;95196.78;;;12.51;100.00
13029;BME280;6581;42.662;23.402;2023-05-23T00:54:24;95190.28;;;12.44;100.00
13029;BME280;6581;42.662;23.402;2023-05-23T00:56:53;95183.44;;;12.43;100.00
13029;BME280;6581;42.662;23.402;2023-05-23T00:59:23;95187.97;;;12.36;100.00
13029;BME280;6581;42.662;23.402;2023-05-23T01:01:51;95204.25;;;12.31;100.00
13029;BME280;6581;42.662;23.402;2023-05-23T01:04:20;95201.91;;;12.22;100.00
13029;BME280;6581;42.662;23.402;2023-05-23T01:06:51;95204.94;;;12.24;100.00
13029;BME280;6581;42.662;23.402;2023-05-23T01:09:19;95194.63;;;12.12;100.00
13029;BME280;6581;42.662;23.402;2023-05-23T01:11:52;95207.13;;;12.08;100.00
13029;BME280;6581;42.662;23.402;2023-05-23T01:14:31;95203.28;;;12.02;100.00
13029;BME280;6581;42.662;23.402;2023-05-23T01:17:09;95201.81;;;12.08;100.00
13029;BME280;6581;42.662;23.402;2023-05-23T01:19:52;95191.94;;;12.05;100.00
13029;BME280;6581;42.662;23.402;2023-05-23T01:22:53;95194.53;;;11.98;100.00
13029;BME280;6581;42.662;23.402;2023-05-23T01:25:36;95210.44;;;11.94;100.00
13029;BME280;6581;42.662;23.402;2023-05-23T01:28:07;95210.44;;;11.98;100.00
13029;BME280;6581;42.662;23.402;2023-05-23T01:30:39;95209.31;;;11.95;100.00
13029;BME280;6581;42.662;23.402;2023-05-23T01:33:07;95204.34;;;11.94;100.00
13029;BME280;6581;42.662;23.402;2023-05-23T01:35:36;95197.09;;;11.87;100.00
13029;BME280;6581;42.662;23.402;2023-05-23T01:38:03;95198.63;;;11.88;100.00
13029;BME280;6581;42.662;23.402;2023-05-23T01:40:30;95202.06;;;11.92;100.00
13029;BME280;6581;42.662;23.402;2023-05-23T01:42:58;95199.81;;;11.94;100.00
13029;BME280;6581;42.662;23.402;2023-05-23T01:45:28;95197.91;;;11.95;100.00
13029;BME280;6581;42.662;23.402;2023-05-23T01:47:56;95200.56;;;11.91;100.00
13029;BME280;6581;42.662;23.402;2023-05-23T01:50:25;95191.44;;;11.92;100.00
13029;BME280;6581;42.662;23.402;2023-05-23T01:52:53;95195.19;;;11.88;100.00
13029;BME280;6581;42.662;23.402;2023-05-23T01:55:21;95188.75;;;11.89;100.00
13029;BME280;6581;42.662;23.402;2023-05-23T01:57:50;95194.44;;;11.87;100.00
13029;BME280;6581;42.662;23.402;2023-05-23T02:00:17;95190.28;;;11.86;100.00
13029;BME280;6581;42.662;23.402;2023-05-23T02:02:49;95186.41;;;11.80;100.00
13029;BME280;6581;42.662;23.402;2023-05-23T02:05:16;95191.31;;;11.78;100.00
13029;BME280;6581;42.662;23.402;2023-05-23T02:07:44;95194.31;;;11.73;100.00
13029;BME280;6581;42.662;23.402;2023-05-23T02:10:11;95194.34;;;11.77;100.00
13029;BME280;6581;42.662;23.402;2023-05-23T02:12:38;95196.59;;;11.75;100.00
13029;BME280;6581;42.662;23.402;2023-05-23T02:15:06;95191.28;;;11.75;100.00
13029;BME280;6581;42.662;23.402;2023-05-23T02:17:35;95191.66;;;11.73;100.00
13029;BME280;6581;42.662;23.402;2023-05-23T02:20:07;95188.19;;;11.69;100.00
13029;BME280;6581;42.662;23.402;2023-05-23T02:22:34;95194.53;;;11.57;100.00
13029;BME280;6581;42.662;23.402;2023-05-23T02:25:02;95196.41;;;11.57;100.00
13029;BME280;6581;42.662;23.402;2023-05-23T02:27:29;95197.06;;;11.47;100.00
13029;BME280;6581;42.662;23.402;2023-05-23T02:29:56;95199.75;;;11.50;100.00
13029;BME280;6581;42.662;23.402;2023-05-23T02:32:23;95202.75;;;11.45;100.00
13029;BME280;6581;42.662;23.402;2023-05-23T02:34:50;95187.97;;;11.44;100.00
13029;BME280;6581;42.662;23.402;2023-05-23T02:37:19;95184.91;;;11.42;100.00
13029;BME280;6581;42.662;23.402;2023-05-23T02:39:46;95183.75;;;11.40;100.00
13029;BME280;6581;42.662;23.402;2023-05-23T02:42:14;95181.47;;;11.38;100.00
13029;BME280;6581;42.662;23.402;2023-05-23T02:44:41;95175.72;;;11.33;100.00
13029;BME280;6581;42.662;23.402;2023-05-23T02:47:08;95183.66;;;11.33;100.00
13029;BME280;6581;42.662;23.402;2023-05-23T02:49:35;95183.66;;;11.33;100.00
13029;BME280;6581;42.662;23.402;2023-05-23T02:52:02;95180.63;;;11.31;100.00
13029;BME280;6581;42.662;23.402;2023-05-23T02:54:31;95180.16;;;11.22;100.00
13029;BME280;6581;42.662;23.402;2023-05-23T02:56:58;95178.31;;;11.26;100.00
13029;BME280;6581;42.662;23.402;2023-05-23T02:59:26;95179.03;;;11.23;100.00
13029;BME280;6581;42.662;23.402;2023-05-23T03:01:53;95174.09;;;11.21;100.00
13029;BME280;6581;42.662;23.402;2023-05-23T03:04:20;95176.00;;;11.24;100.00
13029;BME280;6581;42.662;23.402;2023-05-23T03:06:47;95174.56;;;11.30;100.00
13029;BME280;6581;42.662;23.402;2023-05-23T03:09:14;95177.56;;;11.29;100.00
13029;BME280;6581;42.662;23.402;2023-05-23T03:11:43;95172.22;;;11.22;100.00
13029;BME280;6581;42.662;23.402;2023-05-23T03:14:11;95177.47;;;11.18;100.00
13029;BME280;6581;42.662;23.402;2023-05-23T03:16:38;95184.66;;;11.18;100.00
13029;BME280;6581;42.662;23.402;2023-05-23T03:19:05;95184.66;;;11.18;100.00
13029;BME280;6581;42.662;23.402;2023-05-23T03:21:33;95174.44;;;11.20;100.00
13029;BME280;6581;42.662;23.402;2023-05-23T03:24:01;95183.25;;;11.27;100.00
13029;BME280;6581;42.662;23.402;2023-05-23T03:26:29;95182.91;;;11.32;100.00
13029;BME280;6581;42.662;23.402;2023-05-23T03:28:57;95187.53;;;11.39;100.00
13029;BME280;6581;42.662;23.402;2023-05-23T03:31:25;95189.09;;;11.43;100.00
13029;BME280;6581;42.662;23.402;2023-05-23T03:33:52;95188.63;;;11.34;100.00
13029;BME280;6581;42.662;23.402;2023-05-23T03:36:19;95207.31;;;11.48;100.00
13029;BME280;6581;42.662;23.402;2023-05-23T03:38:51;95208.53;;;11.54;100.00
13029;BME280;6581;42.662;23.402;2023-05-23T03:41:43;95206.69;;;11.59;100.00
13029;BME280;6581;42.662;23.402;2023-05-23T03:44:12;95209.72;;;11.61;100.00
13029;BME280;6581;42.662;23.402;2023-05-23T03:46:40;95203.56;;;11.49;100.00
13029;BME280;6581;42.662;23.402;2023-05-23T03:49:07;95202.09;;;11.55;100.00
13029;BME280;6581;42.662;23.402;2023-05-23T03:51:34;95198.41;;;11.67;100.00
13029;BME280;6581;42.662;23.402;2023-05-23T03:54:02;95203.03;;;11.74;100.00
13029;BME280;6581;42.662;23.402;2023-05-23T03:56:29;95208.75;;;11.76;100.00
13029;BME280;6581;42.662;23.402;2023-05-23T03:58:56;95211.84;;;11.85;100.00
13029;BME280;6581;42.662;23.402;2023-05-23T04:01:25;95217.19;;;11.88;100.00
13029;BME280;6581;42.662;23.402;2023-05-23T04:03:53;95213.78;;;11.88;100.00
13029;BME280;6581;42.662;23.402;2023-05-23T04:06:21;95214.19;;;11.90;100.00
13029;BME280;6581;42.662;23.402;2023-05-23T04:08:49;95215.31;;;11.89;100.00
13029;BME280;6581;42.662;23.402;2023-05-23T04:11:16;95209.63;;;11.90;100.00
13029;BME280;6581;42.662;23.402;2023-05-23T04:13:44;95216.44;;;11.88;100.00
13029;BME280;6581;42.662;23.402;2023-05-23T04:16:11;95210.78;;;11.93;100.00
13029;BME280;6581;42.662;23.402;2023-05-23T04:18:41;95209.25;;;11.92;100.00
13029;BME280;6581;42.662;23.402;2023-05-23T04:21:12;95212.75;;;12.03;100.00
13029;BME280;6581;42.662;23.402;2023-05-23T04:23:49;95215.19;;;12.22;100.00
13029;BME280;6581;42.662;23.402;2023-05-23T04:26:16;95222.03;;;12.23;100.00
13029;BME280;6581;42.662;23.402;2023-05-23T04:28:48;95227.75;;;12.29;100.00
13029;BME280;6581;42.662;23.402;2023-05-23T04:31:15;95225.03;;;12.22;100.00
13029;BME280;6581;42.662;23.402;2023-05-23T04:33:43;95220.94;;;12.28;100.00
13029;BME280;6581;42.662;23.402;2023-05-23T04:36:10;95221.66;;;12.25;100.00
13029;BME280;6581;42.662;23.402;2023-05-23T04:38:40;95223.91;;;12.23;100.00
13029;BME280;6581;42.662;23.402;2023-05-23T04:41:08;95227.47;;;12.41;100.00
13029;BME280;6581;42.662;23.402;2023-05-23T04:43:54;95229.41;;;12.51;100.00
13029;BME280;6581;42.662;23.402;2023-05-23T04:46:37;95222.31;;;12.69;100.00
13029;BME280;6581;42.662;23.402;2023-05-23T04:49:12;95225.72;;;12.70;100.00
13029;BME280;6581;42.662;23.402;2023-05-23T04:51:40;95223.69;;;12.46;100.00
13029;BME280;6581;42.662;23.402;2023-05-23T04:54:16;95225.19;;;12.43;100.00
13029;BME280;6581;42.662;23.402;2023-05-23T04:56:43;95230.13;;;12.44;100.00
13029;BME280;6581;42.662;23.402;2023-05-23T04:59:10;95234.41;;;12.60;100.00
13029;BME280;6581;42.662;23.402;2023-05-23T05:01:38;95238.22;;;12.62;100.00
13029;BME280;6581;42.662;23.402;2023-05-23T05:04:07;95242.75;;;12.62;100.00
13029;BME280;6581;42.662;23.402;2023-05-23T05:06:35;95246.63;;;12.75;100.00
13029;BME280;6581;42.662;23.402;2023-05-23T05:09:03;95249.34;;;12.85;100.00
13029;BME280;6581;42.662;23.402;2023-05-23T05:11:30;95247.06;;;12.84;100.00
13029;BME280;6581;42.662;23.402;2023-05-23T05:13:57;95251.56;;;12.73;100.00
13029;BME280;6581;42.662;23.402;2023-05-23T05:16:24;95252.72;;;12.79;100.00
13029;BME280;6581;42.662;23.402;2023-05-23T05:18:52;95249.78;;;12.91;100.00
13029;BME280;6581;42.662;23.402;2023-05-23T05:21:20;95244.81;;;12.93;100.00
13029;BME280;6581;42.662;23.402;2023-05-23T05:23:48;95251.00;;;13.11;100.00
13029;BME280;6581;42.662;23.402;2023-05-23T05:26:16;95257.91;;;13.26;100.00
13029;BME280;6581;42.662;23.402;2023-05-23T05:28:48;95250.66;;;13.16;100.00
13029;BME280;6581;42.662;23.402;2023-05-23T05:31:16;95247.69;;;13.28;100.00
13029;BME280;6581;42.662;23.402;2023-05-23T05:33:44;95250.75;;;13.38;100.00
13029;BME280;6581;42.662;23.402;2023-05-23T05:36:13;95249.25;;;13.47;100.00
13029;BME280;6581;42.662;23.402;2023-05-23T05:38:40;95251.19;;;13.71;100.00
13029;BME280;6581;42.662;23.402;2023-05-23T05:41:09;95255.81;;;14.03;100.00
13029;BME280;6581;42.662;23.402;2023-05-23T05:43:41;95255.06;;;14.24;100.00
13029;BME280;6581;42.662;23.402;2023-05-23T05:46:09;95247.47;;;14.11;100.00
13029;BME280;6581;42.662;23.402;2023-05-23T05:48:36;95252.75;;;13.94;100.00
13029;BME280;6581;42.662;23.402;2023-05-23T05:51:06;95242.47;;;13.89;100.00
13029;BME280;6581;42.662;23.402;2023-05-23T05:53:35;95250.47;;;14.03;100.00
13029;BME280;6581;42.662;23.402;2023-05-23T05:56:02;95246.31;;;14.19;100.00
13029;BME280;6581;42.662;23.402;2023-05-23T05:58:32;95251.28;;;14.42;100.00
13029;BME280;6581;42.662;23.402;2023-05-23T06:01:02;95256.22;;;14.37;100.00
13029;BME280;6581;42.662;23.402;2023-05-23T06:03:30;95261.13;;;13.89;100.00
13029;BME280;6581;42.662;23.402;2023-05-23T06:05:57;95246.31;;;14.02;100.00
13029;BME280;6581;42.662;23.402;2023-05-23T06:08:25;95250.88;;;14.33;100.00
13029;BME280;6581;42.662;23.402;2023-05-23T06:10:52;95250.13;;;14.54;100.00
13029;BME280;6581;42.662;23.402;2023-05-23T06:13:19;95252.41;;;14.55;100.00
13029;BME280;6581;42.662;23.402;2023-05-23T06:15:52;95260.03;;;14.60;100.00
13029;BME280;6581;42.662;23.402;2023-05-23T06:18:20;95257.34;;;14.64;100.00
13029;BME280;6581;42.662;23.402;2023-05-23T06:20:49;95254.69;;;14.53;100.00
13029;BME280;6581;42.662;23.402;2023-05-23T06:23:17;95258.13;;;14.50;100.00
13029;BME280;6581;42.662;23.402;2023-05-23T06:25:46;95258.91;;;14.47;100.00
13029;BME280;6581;42.662;23.402;2023-05-23T06:28:13;95256.59;;;14.56;100.00
13029;BME280;6581;42.662;23.402;2023-05-23T06:30:40;95257.38;;;14.57;100.00
13029;BME280;6581;42.662;23.402;2023-05-23T06:33:08;95253.94;;;14.46;100.00
13029;BME280;6581;42.662;23.402;2023-05-23T06:35:36;95256.59;;;14.53;100.00
13029;BME280;6581;42.662;23.402;2023-05-23T06:38:03;95253.16;;;14.63;100.00
13029;BME280;6581;42.662;23.402;2023-05-23T06:40:30;95253.56;;;14.51;100.00
13029;BME280;6581;42.662;23.402;2023-05-23T06:42:57;95258.50;;;14.59;100.00
13029;BME280;6581;42.662;23.402;2023-05-23T06:45:34;95255.44;;;14.68;100.00
13029;BME280;6581;42.662;23.402;2023-05-23T06:48:02;95258.09;;;14.79;100.00
13029;BME280;6581;42.662;23.402;2023-05-23T06:50:33;95248.50;;;14.95;100.00
13029;BME280;6581;42.662;23.402;2023-05-23T06:53:01;95243.94;;;14.96;100.00
13029;BME280;6581;42.662;23.402;2023-05-23T06:55:28;95240.13;;;15.00;100.00
13029;BME280;6581;42.662;23.402;2023-05-23T06:57:59;95240.78;;;15.22;100.00
13029;BME280;6581;42.662;23.402;2023-05-23T07:00:29;95239.97;;;15.36;100.00
13029;BME280;6581;42.662;23.402;2023-05-23T07:03:12;95243.41;;;15.33;100.00
13029;BME280;6581;42.662;23.402;2023-05-23T07:05:41;95238.75;;;15.58;100.00
13029;BME280;6581;42.662;23.402;2023-05-23T07:08:09;95250.31;;;16.00;100.00
13029;BME280;6581;42.662;23.402;2023-05-23T07:10:36;95246.75;;;17.02;100.00
13029;BME280;6581;42.662;23.402;2023-05-23T07:13:17;95247.53;;;18.67;92.32
13029;BME280;6581;42.662;23.402;2023-05-23T07:15:44;95249.63;;;20.91;80.00
13029;BME280;6581;42.662;23.402;2023-05-23T07:18:13;95245.97;;;22.57;70.80
13029;BME280;6581;42.662;23.402;2023-05-23T07:20:44;95245.16;;;23.16;64.43
13029;BME280;6581;42.662;23.402;2023-05-23T07:23:15;95245.44;;;23.52;62.08
13029;BME280;6581;42.662;23.402;2023-05-23T07:25:43;95244.19;;;24.06;57.43
13029;BME280;6581;42.662;23.402;2023-05-23T07:28:21;95237.19;;;25.21;51.66
13029;BME280;6581;42.662;23.402;2023-05-23T07:30:48;95234.75;;;26.01;49.17
13029;BME280;6581;42.662;23.402;2023-05-23T07:33:18;95227.56;;;26.31;47.34
13029;BME280;6581;42.662;23.402;2023-05-23T07:35:48;95221.56;;;26.51;47.20
13029;BME280;6581;42.662;23.402;2023-05-23T07:38:15;95223.94;;;25.92;46.71
13029;BME280;6581;42.662;23.402;2023-05-23T07:40:42;95221.63;;;26.66;47.15
13029;BME280;6581;42.662;23.402;2023-05-23T07:43:09;95229.53;;;26.78;44.84
13029;BME280;6581;42.662;23.402;2023-05-23T07:45:36;95228.53;;;27.29;44.75
13029;BME280;6581;42.662;23.402;2023-05-23T07:48:03;95223.94;;;27.20;44.33
13029;BME280;6581;42.662;23.402;2023-05-23T07:50:30;95215.47;;;26.80;44.28
13029;BME280;6581;42.662;23.402;2023-05-23T07:53:00;95212.81;;;27.62;43.20
13029;BME280;6581;42.662;23.402;2023-05-23T07:55:29;95217.75;;;28.43;42.11
13029;BME280;6581;42.662;23.402;2023-05-23T07:57:57;95220.19;;;29.68;39.95
13029;BME280;6581;42.662;23.402;2023-05-23T08:00:26;95220.72;;;29.46;38.31
13029;BME280;6581;42.662;23.402;2023-05-23T08:03:03;95212.81;;;27.77;42.06
13029;BME280;6581;42.662;23.402;2023-05-23T08:05:37;95218.97;;;27.33;42.74
13029;BME280;6581;42.662;23.402;2023-05-23T08:08:05;95201.84;;;27.57;42.06
13029;BME280;6581;42.662;23.402;2023-05-23T08:10:33;95207.63;;;29.04;40.78
13029;BME280;6581;42.662;23.402;2023-05-23T08:13:08;95206.16;;;29.55;39.93
13029;BME280;6581;42.662;23.402;2023-05-23T08:15:43;95204.16;;;29.81;38.35
13029;BME280;6581;42.662;23.402;2023-05-23T08:18:15;95211.06;;;29.76;38.06
13029;BME280;6581;42.662;23.402;2023-05-23T08:20:42;95202.28;;;29.15;38.87
13029;BME280;6581;42.662;23.402;2023-05-23T08:23:11;95197.88;;;28.97;39.96
13029;BME280;6581;42.662;23.402;2023-05-23T08:25:38;95202.88;;;27.74;42.01
13029;BME280;6581;42.662;23.402;2023-05-23T08:28:05;95209.59;;;26.34;44.29
13029;BME280;6581;42.662;23.402;2023-05-23T08:30:41;95199.94;;;25.49;47.63
13029;BME280;6581;42.662;23.402;2023-05-23T08:33:08;95199.41;;;24.99;50.77
13029;BME280;6581;42.662;23.402;2023-05-23T08:35:37;95195.88;;;24.35;54.32
13029;BME280;6581;42.662;23.402;2023-05-23T08:38:08;95190.34;;;23.59;57.13
13029;BME280;6581;42.662;23.402;2023-05-23T08:40:47;95199.34;;;22.56;67.35
13029;BME280;6581;42.662;23.402;2023-05-23T08:43:15;95191.59;;;22.45;67.25
13029;BME280;6581;42.662;23.402;2023-05-23T08:45:42;95183.34;;;22.27;70.89
13029;BME280;6581;42.662;23.402;2023-05-23T08:48:12;95195.94;;;21.42;74.58
13029;BME280;6581;42.662;23.402;2023-05-23T08:50:45;95192.28;;;21.07;73.12
13029;BME280;6581;42.662;23.402;2023-05-23T08:53:15;95186.31;;;21.28;75.13
13029;BME280;6581;42.662;23.402;2023-05-23T08:55:49;95187.94;;;21.26;80.46
13029;BME280;6581;42.662;23.402;2023-05-23T08:58:18;95187.91;;;21.13;77.31
13029;BME280;6581;42.662;23.402;2023-05-23T09:00:53;95179.25;;;20.76;79.53
13029;BME280;6581;42.662;23.402;2023-05-23T09:03:21;95172.53;;;20.68;79.23
13029;BME280;6581;42.662;23.402;2023-05-23T09:06:26;95182.06;;;20.86;79.57
13029;BME280;6581;42.662;23.402;2023-05-23T09:08:53;95172.69;;;21.06;79.52
13029;BME280;6581;42.662;23.402;2023-05-23T09:11:25;95179.09;;;20.96;73.42
13029;BME280;6581;42.662;23.402;2023-05-23T09:13:52;95179.63;;;20.91;80.79
13029;BME280;6581;42.662;23.402;2023-05-23T09:16:22;95179.75;;;21.00;80.68
13029;BME280;6581;42.662;23.402;2023-05-23T09:18:53;95166.16;;;21.20;76.25
13029;BME280;6581;42.662;23.402;2023-05-23T09:21:23;95163.19;;;21.43;71.58
13029;BME280;6581;42.662;23.402;2023-05-23T09:23:59;95163.19;;;21.81;65.96
13029;BME280;6581;42.662;23.402;2023-05-23T09:26:28;95167.09;;;21.67;67.08
13029;BME280;6581;42.662;23.402;2023-05-23T09:28:57;95166.22;;;21.58;68.00
13029;BME280;6581;42.662;23.402;2023-05-23T09:31:25;95168.78;;;21.87;60.58
13029;BME280;6581;42.662;23.402;2023-05-23T09:33:57;95164.25;;;22.09;51.60
13029;BME280;6581;42.662;23.402;2023-05-23T09:36:27;95163.25;;;22.28;54.84
13029;BME280;6581;42.662;23.402;2023-05-23T09:38:55;95157.31;;;22.55;53.79
13029;BME280;6581;42.662;23.402;2023-05-23T09:41:22;95160.31;;;22.70;45.70
13029;BME280;6581;42.662;23.402;2023-05-23T09:43:53;95163.72;;;22.83;43.86
13029;BME280;6581;42.662;23.402;2023-05-23T09:46:21;95155.50;;;22.52;45.36
13029;BME280;6581;42.662;23.402;2023-05-23T09:48:51;95145.38;;;22.78;48.13
13029;BME280;6581;42.662;23.402;2023-05-23T09:51:21;95134.84;;;22.92;48.56
13029;BME280;6581;42.662;23.402;2023-05-23T09:53:49;95152.75;;;22.77;44.34
13029;BME280;6581;42.662;23.402;2023-05-23T09:56:18;95150.63;;;22.25;46.39
13029;BME280;6581;42.662;23.402;2023-05-23T09:58:47;95141.97;;;22.30;48.51
13029;BME280;6581;42.662;23.402;2023-05-23T10:01:16;95150.13;;;22.18;49.25
13029;BME280;6581;42.662;23.402;2023-05-23T10:03:45;95145.09;;;21.94;46.73
13029;BME280;6581;42.662;23.402;2023-05-23T10:06:18;95144.50;;;22.12;51.56
13029;BME280;6581;42.662;23.402;2023-05-23T10:08:52;95143.25;;;22.38;47.20
13029;BME280;6581;42.662;23.402;2023-05-23T10:14:18;95135.38;;;22.66;45.45
13029;BME280;6581;42.662;23.402;2023-05-23T10:16:54;95132.97;;;22.80;45.24
13029;BME280;6581;42.662;23.402;2023-05-23T10:19:24;95129.78;;;22.60;48.13
13029;BME280;6581;42.662;23.402;2023-05-23T10:21:57;95135.91;;;22.73;45.19
13029;BME280;6581;42.662;23.402;2023-05-23T10:24:25;95127.91;;;22.91;46.06
13029;BME280;6581;42.662;23.402;2023-05-23T10:26:53;95120.63;;;23.01;44.73
13029;BME280;6581;42.662;23.402;2023-05-23T10:29:21;95124.59;;;22.87;44.12
13029;BME280;6581;42.662;23.402;2023-05-23T10:31:51;95117.13;;;22.91;46.88
13029;BME280;6581;42.662;23.402;2023-05-23T10:34:24;95115.59;;;22.69;42.91
13029;BME280;6581;42.662;23.402;2023-05-23T10:36:58;95121.44;;;22.67;42.74
13029;BME280;6581;42.662;23.402;2023-05-23T10:39:41;95121.19;;;22.52;40.68
13029;BME280;6581;42.662;23.402;2023-05-23T10:42:15;95114.19;;;22.42;43.47
13029;BME280;6581;42.662;23.402;2023-05-23T10:44:43;95105.94;;;22.59;43.23
13029;BME280;6581;42.662;23.402;2023-05-23T10:47:11;95097.16;;;22.67;43.91
13029;BME280;6581;42.662;23.402;2023-05-23T10:49:43;95108.19;;;22.60;41.58
13029;BME280;6581;42.662;23.402;2023-05-23T10:52:12;95103.56;;;22.82;42.17
13029;BME280;6581;42.662;23.402;2023-05-23T10:54:43;95101.22;;;22.93;42.15
13029;BME280;6581;42.662;23.402;2023-05-23T10:57:14;95105.13;;;22.71;41.34
13029;BME280;6581;42.662;23.402;2023-05-23T10:59:43;95089.06;;;22.33;41.18
13029;BME280;6581;42.662;23.402;2023-05-23T11:02:17;95090.28;;;22.32;44.16
13029;BME280;6581;42.662;23.402;2023-05-23T11:04:44;95104.41;;;22.36;41.48
13029;BME280;6581;42.662;23.402;2023-05-23T11:07:29;95100.06;;;22.38;40.44
13029;BME280;6581;42.662;23.402;2023-05-23T11:10:03;95091.53;;;22.40;40.27
13029;BME280;6581;42.662;23.402;2023-05-23T11:12:37;95089.91;;;22.64;41.25
13029;BME280;6581;42.662;23.402;2023-05-23T11:15:28;95093.06;;;22.84;40.88
13029;BME280;6581;42.662;23.402;2023-05-23T11:18:08;95086.09;;;22.52;38.43
13029;BME280;6581;42.662;23.402;2023-05-23T11:20:36;95084.63;;;22.39;39.30
13029;BME280;6581;42.662;23.402;2023-05-23T11:23:07;95079.91;;;22.30;39.42
13029;BME280;6581;42.662;23.402;2023-05-23T11:25:41;95086.28;;;22.36;38.89
13029;BME280;6581;42.662;23.402;2023-05-23T11:28:09;95071.28;;;22.35;40.15
13029;BME280;6581;42.662;23.402;2023-05-23T11:30:37;95085.19;;;22.34;39.79
13029;BME280;6581;42.662;23.402;2023-05-23T11:33:10;95080.28;;;22.41;42.24
13029;BME280;6581;42.662;23.402;2023-05-23T11:35:39;95072.84;;;22.45;40.94
13029;BME280;6581;42.662;23.402;2023-05-23T11:38:07;95072.72;;;22.49;38.31
13029;BME280;6581;42.662;23.402;2023-05-23T11:40:35;95063.56;;;22.68;40.42
13029;BME280;6581;42.662;23.402;2023-05-23T11:43:04;95074.34;;;22.68;37.42
13029;BME280;6581;42.662;23.402;2023-05-23T11:45:33;95068.38;;;22.51;37.20
13029;BME280;6581;42.662;23.402;2023-05-23T11:48:04;95060.22;;;22.42;37.00
13029;BME280;6581;42.662;23.402;2023-05-23T11:50:34;95065.94;;;22.44;37.59
13029;BME280;6581;42.662;23.402;2023-05-23T11:53:09;95067.25;;;22.40;37.29
13029;BME280;6581;42.662;23.402;2023-05-23T11:55:38;95065.25;;;22.53;38.25
13029;BME280;6581;42.662;23.402;2023-05-23T11:58:05;95057.34;;;22.59;39.08
13029;BME280;6581;42.662;23.402;2023-05-23T12:00:33;95055.13;;;22.88;39.18
13029;BME280;6581;42.662;23.402;2023-05-23T12:03:05;95053.56;;;23.00;40.14
13029;BME280;6581;42.662;23.402;2023-05-23T12:05:34;95056.22;;;22.90;39.67
13029;BME280;6581;42.662;23.402;2023-05-23T12:08:01;95059.44;;;22.76;39.38
13029;BME280;6581;42.662;23.402;2023-05-23T12:10:28;95053.50;;;22.90;38.86
13029;BME280;6581;42.662;23.402;2023-05-23T12:12:55;95047.50;;;22.86;38.06
13029;BME280;6581;42.662;23.402;2023-05-23T12:15:24;95053.81;;;22.92;37.87
13029;BME280;6581;42.662;23.402;2023-05-23T12:17:53;95040.41;;;23.20;38.51
13029;BME280;6581;42.662;23.402;2023-05-23T12:20:20;95044.84;;;23.35;39.83
13029;BME280;6581;42.662;23.402;2023-05-23T12:22:49;95037.63;;;23.32;38.86
13029;BME280;6581;42.662;23.402;2023-05-23T12:25:16;95027.94;;;23.44;38.54
13029;BME280;6581;42.662;23.402;2023-05-23T12:27:43;95026.91;;;23.51;37.58
13029;BME280;6581;42.662;23.402;2023-05-23T12:30:13;95021.09;;;23.89;36.74
13029;BME280;6581;42.662;23.402;2023-05-23T12:32:41;95025.94;;;24.21;36.21
13029;BME280;6581;42.662;23.402;2023-05-23T12:35:10;95025.59;;;24.64;35.53
13029;BME280;6581;42.662;23.402;2023-05-23T12:37:38;95011.53;;;24.84;35.35
13029;BME280;6581;42.662;23.402;2023-05-23T12:40:11;95017.69;;;24.43;34.94
13029;BME280;6581;42.662;23.402;2023-05-23T12:42:51;95013.00;;;24.43;35.40
13029;BME280;6581;42.662;23.402;2023-05-23T12:45:20;95005.81;;;24.22;34.01
13029;BME280;6581;42.662;23.402;2023-05-23T12:47:48;94999.44;;;23.89;33.82
13029;BME280;6581;42.662;23.402;2023-05-23T12:50:15;95005.28;;;23.60;33.26
13029;BME280;6581;42.662;23.402;2023-05-23T12:52:42;95002.44;;;23.63;35.16
13029;BME280;6581;42.662;23.402;2023-05-23T12:55:12;94996.41;;;23.50;33.15
13029;BME280;6581;42.662;23.402;2023-05-23T12:57:39;95006.41;;;23.40;33.00
13029;BME280;6581;42.662;23.402;2023-05-23T13:00:07;94996.34;;;23.32;34.44
13029;BME280;6581;42.662;23.402;2023-05-23T13:02:35;94986.56;;;23.25;32.78
13029;BME280;6581;42.662;23.402;2023-05-23T13:05:02;94990.19;;;23.31;32.57
13029;BME280;6581;42.662;23.402;2023-05-23T13:07:31;94985.88;;;23.52;34.95
13029;BME280;6581;42.662;23.402;2023-05-23T13:09:58;94986.66;;;23.62;32.32